createdAt,value
2023-03-11T00:00:10.541Z,111
2023-03-11T00:01:10.802Z,111
2023-03-11T00:02:10.470Z,111
2023-03-11T00:03:10.393Z,111
2023-03-11T00:04:10.475Z,111
2023-03-11T00:05:10.915Z,111
2023-03-11T00:06:10.272Z,111
2023-03-11T00:07:10.310Z,110
2023-03-11T00:08:10.449Z,110
2023-03-11T00:09:10.697Z,110
2023-03-11T00:10:09.861Z,110
2023-03-11T00:11:10.462Z,110
2023-03-11T00:12:10.639Z,110
2023-03-11T00:13:10.317Z,110
2023-03-11T00:14:10.135Z,110
2023-03-11T00:15:10.360Z,110
2023-03-11T00:16:10.781Z,110
2023-03-11T00:17:10.989Z,110
2023-03-11T00:18:10.211Z,110
2023-03-11T00:19:10.381Z,110
2023-03-11T00:20:10.772Z,110
2023-03-11T00:21:10.150Z,110
2023-03-11T00:22:10.165Z,110
2023-03-11T00:23:10.569Z,110
2023-03-11T00:24:10.912Z,110
2023-03-11T00:25:10.276Z,110
2023-03-11T00:26:10.372Z,110
2023-03-11T00:27:10.461Z,110
2023-03-11T00:28:10.895Z,110
2023-03-11T00:29:11.124Z,110
2023-03-11T00:30:10.404Z,110
2023-03-11T00:31:10.708Z,110
2023-03-11T00:32:10.733Z,110
2023-03-11T00:33:10.288Z,110
2023-03-11T00:34:10.457Z,110
2023-03-11T00:35:10.653Z,110
2023-03-11T00:36:10.309Z,110
2023-03-11T00:37:09.930Z,110
2023-03-11T00:38:10.217Z,110
2023-03-11T00:39:10.570Z,110
2023-03-11T00:40:11.116Z,110
2023-03-11T00:41:10.316Z,110
2023-03-11T00:42:10.545Z,110
2023-03-11T00:43:10.709Z,110
2023-03-11T00:44:11.036Z,110
2023-03-11T00:45:09.878Z,110
2023-03-11T00:46:10.813Z,110
2023-03-11T00:47:10.809Z,110
2023-03-11T00:48:10.135Z,110
2023-03-11T00:49:10.440Z,110
2023-03-11T00:50:10.763Z,110
2023-03-11T00:51:10.038Z,110
2023-03-11T00:52:10.233Z,110
2023-03-11T00:53:10.716Z,110
2023-03-11T00:54:09.868Z,110
2023-03-11T00:55:10.318Z,110
2023-03-11T00:56:10.312Z,110
2023-03-11T00:57:09.507Z,110
2023-03-11T00:58:10.254Z,110
2023-03-11T00:59:10.733Z,110
2023-03-11T01:00:10.661Z,110
2023-03-11T01:01:10.931Z,110
2023-03-11T01:02:10.018Z,110
2023-03-11T01:03:10.400Z,110
2023-03-11T01:04:10.685Z,110
2023-03-11T01:05:10.677Z,110
2023-03-11T01:06:10.325Z,110
2023-03-11T01:07:13.354Z,107
2023-03-11T01:08:10.717Z,107
2023-03-11T01:09:10.163Z,107
2023-03-11T01:10:10.275Z,107
2023-03-11T01:11:10.689Z,107
2023-03-11T01:12:09.973Z,107
2023-03-11T01:13:10.312Z,107
2023-03-11T01:14:10.525Z,107
2023-03-11T01:15:10.785Z,107
2023-03-11T01:16:10.309Z,107
2023-03-11T01:17:10.287Z,107
2023-03-11T01:18:10.687Z,107
2023-03-11T01:19:10.683Z,107
2023-03-11T01:20:10.071Z,107
2023-03-11T01:21:10.105Z,107
2023-03-11T01:22:10.442Z,107
2023-03-11T01:23:10.722Z,107
2023-03-11T01:24:10.098Z,107
2023-03-11T01:25:10.332Z,107
2023-03-11T01:26:10.397Z,107
2023-03-11T01:27:10.878Z,107
2023-03-11T01:28:10.126Z,107
2023-03-11T01:29:10.406Z,107
2023-03-11T01:30:10.651Z,107
2023-03-11T01:31:10.835Z,107
2023-03-11T01:32:10.084Z,107
2023-03-11T01:33:10.297Z,107
2023-03-11T01:34:10.486Z,107
2023-03-11T01:35:11.040Z,107
2023-03-11T01:36:10.593Z,107
2023-03-11T01:37:10.288Z,107
2023-03-11T01:38:10.725Z,107
2023-03-11T01:39:10.873Z,107
2023-03-11T01:40:09.980Z,107
2023-03-11T01:41:10.492Z,107
2023-03-11T01:42:10.617Z,107
2023-03-11T01:43:10.945Z,107
2023-03-11T01:44:09.891Z,107
2023-03-11T01:45:10.191Z,107
2023-03-11T01:46:11.072Z,107
2023-03-11T01:47:10.947Z,107
2023-03-11T01:48:10.226Z,107
2023-03-11T01:49:10.431Z,107
2023-03-11T01:50:10.572Z,107
2023-03-11T01:51:10.417Z,107
2023-03-11T01:52:10.732Z,107
2023-03-11T01:53:10.258Z,107
2023-03-11T01:54:10.412Z,107
2023-03-11T01:55:10.658Z,107
2023-03-11T01:56:09.977Z,107
2023-03-11T01:57:10.227Z,107
2023-03-11T01:58:10.368Z,107
2023-03-11T01:59:10.465Z,107
2023-03-11T02:00:09.857Z,107
2023-03-11T02:01:10.312Z,107
2023-03-11T02:02:11.047Z,107
2023-03-11T02:03:11.123Z,107
2023-03-11T02:04:10.187Z,107
2023-03-11T02:05:10.463Z,107
2023-03-11T02:06:10.254Z,107
2023-03-11T02:07:10.465Z,105
2023-03-11T02:08:10.686Z,105
2023-03-11T02:09:09.966Z,105
2023-03-11T02:10:10.276Z,105
2023-03-11T02:11:10.555Z,105
2023-03-11T02:12:10.988Z,105
2023-03-11T02:13:10.220Z,105
2023-03-11T02:14:10.353Z,105
2023-03-11T02:15:10.356Z,105
2023-03-11T02:16:10.798Z,105
2023-03-11T02:17:10.586Z,105
2023-03-11T02:18:10.509Z,105
2023-03-11T02:19:10.543Z,105
2023-03-11T02:20:10.556Z,105
2023-03-11T02:21:10.643Z,105
2023-03-11T02:22:10.945Z,105
2023-03-11T02:23:10.418Z,105
2023-03-11T02:24:10.742Z,105
2023-03-11T02:25:10.930Z,105
2023-03-11T02:26:10.328Z,105
2023-03-11T02:27:10.443Z,105
2023-03-11T02:28:10.258Z,105
2023-03-11T02:29:10.743Z,105
2023-03-11T02:30:10.129Z,105
2023-03-11T02:31:10.847Z,105
2023-03-11T02:32:10.697Z,105
2023-03-11T02:33:10.077Z,105
2023-03-11T02:34:10.415Z,105
2023-03-11T02:35:10.627Z,105
2023-03-11T02:36:10.817Z,105
2023-03-11T02:37:10.922Z,105
2023-03-11T02:38:10.192Z,105
2023-03-11T02:39:10.704Z,105
2023-03-11T02:40:10.878Z,105
2023-03-11T02:41:10.536Z,105
2023-03-11T02:42:10.218Z,105
2023-03-11T02:43:10.788Z,105
2023-03-11T02:44:10.790Z,105
2023-03-11T02:45:10.271Z,105
2023-03-11T02:46:10.585Z,105
2023-03-11T02:47:11.195Z,105
2023-03-11T02:48:10.253Z,105
2023-03-11T02:49:10.567Z,105
2023-03-11T02:50:11.239Z,105
2023-03-11T02:51:10.376Z,105
2023-03-11T02:52:09.959Z,105
2023-03-11T02:53:10.350Z,105
2023-03-11T02:54:10.483Z,105
2023-03-11T02:55:10.374Z,105
2023-03-11T02:56:10.131Z,105
2023-03-11T02:57:10.248Z,105
2023-03-11T02:58:10.582Z,105
2023-03-11T02:59:10.841Z,105
2023-03-11T03:00:10.217Z,105
2023-03-11T03:01:10.450Z,105
2023-03-11T03:02:11.032Z,105
2023-03-11T03:03:10.057Z,105
2023-03-11T03:04:10.626Z,105
2023-03-11T03:05:10.553Z,105
2023-03-11T03:06:09.876Z,105
2023-03-11T03:07:10.200Z,107
2023-03-11T03:08:10.425Z,107
2023-03-11T03:09:10.822Z,107
2023-03-11T03:10:10.808Z,107
2023-03-11T03:11:10.351Z,107
2023-03-11T03:12:11.087Z,107
2023-03-11T03:13:10.353Z,107
2023-03-11T03:14:10.611Z,107
2023-03-11T03:15:10.741Z,107
2023-03-11T03:16:11.236Z,107
2023-03-11T03:17:10.718Z,107
2023-03-11T03:18:10.502Z,107
2023-03-11T03:19:10.567Z,107
2023-03-11T03:20:10.891Z,107
2023-03-11T03:21:10.071Z,107
2023-03-11T03:22:10.289Z,107
2023-03-11T03:23:10.697Z,107
2023-03-11T03:24:10.749Z,107
2023-03-11T03:25:10.332Z,107
2023-03-11T03:26:10.352Z,107
2023-03-11T03:27:10.648Z,107
2023-03-11T03:28:10.007Z,107
2023-03-11T03:29:10.193Z,107
2023-03-11T03:30:10.820Z,107
2023-03-11T03:31:10.238Z,107
2023-03-11T03:32:10.679Z,107
2023-03-11T03:33:10.868Z,107
2023-03-11T03:34:10.071Z,107
2023-03-11T03:35:10.265Z,107
2023-03-11T03:36:10.954Z,107
2023-03-11T03:37:10.728Z,107
2023-03-11T03:38:09.832Z,107
2023-03-11T03:39:10.199Z,107
2023-03-11T03:40:10.654Z,107
2023-03-11T03:41:10.604Z,107
2023-03-11T03:42:10.652Z,107
2023-03-11T03:43:09.812Z,107
2023-03-11T03:44:10.406Z,107
2023-03-11T03:45:10.958Z,107
2023-03-11T03:46:10.596Z,107
2023-03-11T03:47:10.460Z,107
2023-03-11T03:48:10.531Z,107
2023-03-11T03:49:10.637Z,107
2023-03-11T03:50:10.404Z,107
2023-03-11T03:51:10.744Z,107
2023-03-11T03:52:10.988Z,107
2023-03-11T03:53:10.020Z,107
2023-03-11T03:54:10.164Z,107
2023-03-11T03:55:10.400Z,107
2023-03-11T03:56:10.999Z,107
2023-03-11T03:57:10.145Z,107
2023-03-11T03:58:10.419Z,107
2023-03-11T03:59:10.682Z,107
2023-03-11T04:00:10.189Z,107
2023-03-11T04:01:10.466Z,107
2023-03-11T04:02:10.655Z,107
2023-03-11T04:03:10.299Z,107
2023-03-11T04:04:10.350Z,107
2023-03-11T04:05:10.364Z,107
2023-03-11T04:06:10.395Z,107
2023-03-11T04:07:10.939Z,108
2023-03-11T04:08:10.255Z,108
2023-03-11T04:09:10.375Z,108
2023-03-11T04:10:10.689Z,108
2023-03-11T04:11:09.984Z,108
2023-03-11T04:12:10.380Z,108
2023-03-11T04:13:10.905Z,108
2023-03-11T04:14:10.173Z,108
2023-03-11T04:15:10.512Z,108
2023-03-11T04:16:11.042Z,108
2023-03-11T04:17:10.554Z,108
2023-03-11T04:18:10.395Z,108
2023-03-11T04:19:09.950Z,108
2023-03-11T04:20:10.639Z,108
2023-03-11T04:21:10.804Z,108
2023-03-11T04:22:10.274Z,108
2023-03-11T04:23:10.268Z,108
2023-03-11T04:24:10.530Z,108
2023-03-11T04:25:11.019Z,108
2023-03-11T04:26:10.741Z,108
2023-03-11T04:27:10.009Z,108
2023-03-11T04:28:10.110Z,108
2023-03-11T04:29:10.165Z,108
2023-03-11T04:30:10.979Z,108
2023-03-11T04:31:10.318Z,108
2023-03-11T04:32:10.317Z,108
2023-03-11T04:33:10.641Z,108
2023-03-11T04:34:10.591Z,108
2023-03-11T04:35:10.861Z,108
2023-03-11T04:36:10.126Z,108
2023-03-11T04:37:10.439Z,108
2023-03-11T04:38:10.796Z,108
2023-03-11T04:39:11.079Z,108
2023-03-11T04:40:10.050Z,108
2023-03-11T04:41:10.161Z,108
2023-03-11T04:42:12.381Z,108
2023-03-11T04:43:10.995Z,108
2023-03-11T04:44:10.282Z,108
2023-03-11T04:45:10.675Z,108
2023-03-11T04:46:10.922Z,108
2023-03-11T04:47:10.951Z,108
2023-03-11T04:48:10.238Z,108
2023-03-11T04:49:10.764Z,108
2023-03-11T04:50:10.765Z,108
2023-03-11T04:51:10.248Z,108
2023-03-11T04:52:10.093Z,108
2023-03-11T04:53:10.642Z,108
2023-03-11T04:54:10.111Z,108
2023-03-11T04:55:10.557Z,108
2023-03-11T04:56:10.565Z,108
2023-03-11T04:57:10.903Z,108
2023-03-11T04:58:09.898Z,108
2023-03-11T04:59:10.106Z,108
2023-03-11T05:00:10.502Z,108
2023-03-11T05:01:10.311Z,108
2023-03-11T05:02:12.759Z,108
2023-03-11T05:03:10.534Z,108
2023-03-11T05:04:10.893Z,108
2023-03-11T05:05:10.572Z,108
2023-03-11T05:06:10.482Z,108
2023-03-11T05:07:10.777Z,104
2023-03-11T05:08:10.149Z,104
2023-03-11T05:09:10.207Z,104
2023-03-11T05:10:10.600Z,104
2023-03-11T05:11:10.592Z,104
2023-03-11T05:12:10.945Z,104
2023-03-11T05:13:10.327Z,104
2023-03-11T05:14:10.281Z,104
2023-03-11T05:15:10.699Z,104
2023-03-11T05:16:10.908Z,104
2023-03-11T05:17:10.288Z,104
2023-03-11T05:18:10.182Z,104
2023-03-11T05:19:10.344Z,104
2023-03-11T05:20:10.557Z,104
2023-03-11T05:21:10.793Z,104
2023-03-11T05:22:10.403Z,104
2023-03-11T05:23:10.161Z,104
2023-03-11T05:24:10.524Z,104
2023-03-11T05:25:10.495Z,104
2023-03-11T05:26:10.348Z,104
2023-03-11T05:27:10.611Z,104
2023-03-11T05:28:10.782Z,104
2023-03-11T05:29:09.987Z,104
2023-03-11T05:30:10.524Z,104
2023-03-11T05:31:11.134Z,104
2023-03-11T05:32:10.626Z,104
2023-03-11T05:33:10.304Z,104
2023-03-11T05:34:10.674Z,104
2023-03-11T05:35:11.080Z,104
2023-03-11T05:36:10.492Z,104
2023-03-11T05:37:11.726Z,104
2023-03-11T05:38:10.745Z,104
2023-03-11T05:39:10.100Z,104
2023-03-11T05:40:10.242Z,104
2023-03-11T05:41:10.652Z,104
2023-03-11T05:42:10.987Z,104
2023-03-11T05:43:09.946Z,104
2023-03-11T05:44:10.181Z,104
2023-03-11T05:45:10.415Z,104
2023-03-11T05:46:11.319Z,104
2023-03-11T05:47:10.368Z,104
2023-03-11T05:48:10.737Z,104
2023-03-11T05:49:10.883Z,104
2023-03-11T05:50:10.110Z,104
2023-03-11T05:51:10.520Z,104
2023-03-11T05:52:10.785Z,104
2023-03-11T05:53:10.019Z,104
2023-03-11T05:54:10.256Z,104
2023-03-11T05:55:10.673Z,104
2023-03-11T05:56:10.867Z,104
2023-03-11T05:57:11.150Z,104
2023-03-11T05:58:10.584Z,104
2023-03-11T05:59:10.693Z,104
2023-03-11T06:00:10.831Z,104
2023-03-11T06:01:10.284Z,104
2023-03-11T06:02:10.847Z,104
2023-03-11T06:03:11.008Z,104
2023-03-11T06:04:10.983Z,104
2023-03-11T06:05:17.392Z,104
2023-03-11T06:06:10.893Z,104
2023-03-11T06:07:10.203Z,100
2023-03-11T06:08:10.291Z,100
2023-03-11T06:09:10.528Z,100
2023-03-11T06:10:11.031Z,100
2023-03-11T06:11:10.327Z,100
2023-03-11T06:12:10.405Z,100
2023-03-11T06:13:10.349Z,100
2023-03-11T06:14:10.652Z,100
2023-03-11T06:15:11.013Z,100
2023-03-11T06:16:10.690Z,100
2023-03-11T06:17:10.397Z,100
2023-03-11T06:18:10.859Z,100
2023-03-11T06:19:10.002Z,100
2023-03-11T06:20:10.234Z,100
2023-03-11T06:21:10.684Z,100
2023-03-11T06:22:10.843Z,100
2023-03-11T06:23:09.959Z,100
2023-03-11T06:24:10.294Z,100
2023-03-11T06:25:10.805Z,100
2023-03-11T06:26:10.273Z,100
2023-03-11T06:27:10.560Z,100
2023-03-11T06:28:10.799Z,100
2023-03-11T06:29:09.802Z,100
2023-03-11T06:30:10.679Z,100
2023-03-11T06:31:11.021Z,100
2023-03-11T06:32:10.251Z,100
2023-03-11T06:33:10.306Z,100
2023-03-11T06:34:10.572Z,100
2023-03-11T06:35:10.802Z,100
2023-03-11T06:36:10.589Z,100
2023-03-11T06:37:10.497Z,100
2023-03-11T06:38:10.798Z,100
2023-03-11T06:39:09.944Z,100
2023-03-11T06:40:10.111Z,100
2023-03-11T06:41:10.307Z,100
2023-03-11T06:42:10.479Z,100
2023-03-11T06:43:10.917Z,100
2023-03-11T06:44:10.270Z,100
2023-03-11T06:45:10.682Z,100
2023-03-11T06:46:10.834Z,100
2023-03-11T06:47:10.921Z,100
2023-03-11T06:48:10.215Z,100
2023-03-11T06:49:10.555Z,100
2023-03-11T06:50:10.877Z,100
2023-03-11T06:51:10.108Z,100
2023-03-11T06:52:10.437Z,100
2023-03-11T06:53:10.954Z,100
2023-03-11T06:54:10.040Z,100
2023-03-11T06:55:10.277Z,100
2023-03-11T06:56:10.581Z,100
2023-03-11T06:57:10.964Z,100
2023-03-11T06:58:10.139Z,100
2023-03-11T06:59:10.547Z,100
2023-03-11T07:00:09.941Z,100
2023-03-11T07:01:10.412Z,100
2023-03-11T07:02:10.561Z,100
2023-03-11T07:03:10.498Z,100
2023-03-11T07:04:11.380Z,100
2023-03-11T07:05:10.321Z,100
2023-03-11T07:06:12.867Z,100
2023-03-11T07:07:10.852Z,101
2023-03-11T07:08:10.197Z,101
2023-03-11T07:09:10.545Z,101
2023-03-11T07:10:10.731Z,101
2023-03-11T07:11:10.560Z,101
2023-03-11T07:12:12.918Z,101
2023-03-11T07:13:09.921Z,101
2023-03-11T07:14:10.038Z,101
2023-03-11T07:15:10.595Z,101
2023-03-11T07:16:10.095Z,101
2023-03-11T07:17:10.735Z,101
2023-03-11T07:18:10.910Z,101
2023-03-11T07:19:10.023Z,101
2023-03-11T07:20:10.257Z,101
2023-03-11T07:21:10.590Z,101
2023-03-11T07:22:10.628Z,101
2023-03-11T07:23:10.277Z,101
2023-03-11T07:24:10.440Z,101
2023-03-11T07:25:10.902Z,101
2023-03-11T07:26:10.354Z,101
2023-03-11T07:27:10.727Z,101
2023-03-11T07:28:10.880Z,101
2023-03-11T07:29:10.045Z,101
2023-03-11T07:30:10.627Z,101
2023-03-11T07:31:10.284Z,101
2023-03-11T07:32:11.057Z,101
2023-03-11T07:33:10.862Z,101
2023-03-11T07:34:10.175Z,101
2023-03-11T07:35:10.375Z,101
2023-03-11T07:36:10.338Z,101
2023-03-11T07:37:10.398Z,101
2023-03-11T07:38:10.718Z,101
2023-03-11T07:39:12.717Z,101
2023-03-11T07:40:10.186Z,101
2023-03-11T07:41:10.400Z,101
2023-03-11T07:42:10.724Z,101
2023-03-11T07:43:11.155Z,101
2023-03-11T07:44:12.004Z,101
2023-03-11T07:45:10.240Z,101
2023-03-11T07:46:11.182Z,101
2023-03-11T07:47:10.718Z,101
2023-03-11T07:48:09.840Z,101
2023-03-11T07:49:10.280Z,101
2023-03-11T07:50:10.632Z,101
2023-03-11T07:51:10.898Z,101
2023-03-11T07:52:10.180Z,101
2023-03-11T07:53:10.710Z,101
2023-03-11T07:54:10.704Z,101
2023-03-11T07:55:10.764Z,101
2023-03-11T07:56:10.428Z,101
2023-03-11T07:57:10.500Z,101
2023-03-11T07:58:11.000Z,101
2023-03-11T07:59:10.269Z,101
2023-03-11T08:00:10.410Z,101
2023-03-11T08:01:10.823Z,101
2023-03-11T08:02:10.062Z,101
2023-03-11T08:03:10.380Z,101
2023-03-11T08:04:13.696Z,101
2023-03-11T08:05:11.077Z,101
2023-03-11T08:06:10.197Z,101
2023-03-11T08:07:10.400Z,103
2023-03-11T08:08:10.581Z,103
2023-03-11T08:09:09.932Z,103
2023-03-11T08:10:10.201Z,103
2023-03-11T08:11:10.577Z,103
2023-03-11T08:12:10.718Z,103
2023-03-11T08:13:10.060Z,103
2023-03-11T08:14:10.246Z,103
2023-03-11T08:15:10.535Z,103
2023-03-11T08:16:10.333Z,103
2023-03-11T08:17:10.714Z,103
2023-03-11T08:18:11.163Z,103
2023-03-11T08:19:10.188Z,103
2023-03-11T08:20:10.337Z,103
2023-03-11T08:21:10.086Z,103
2023-03-11T08:22:10.651Z,103
2023-03-11T08:23:10.512Z,103
2023-03-11T08:24:11.846Z,103
2023-03-11T08:25:10.406Z,103
2023-03-11T08:26:10.972Z,103
2023-03-11T08:27:09.944Z,103
2023-03-11T08:28:10.197Z,103
2023-03-11T08:29:10.482Z,103
2023-03-11T08:30:11.048Z,103
2023-03-11T08:31:10.565Z,103
2023-03-11T08:32:10.542Z,103
2023-03-11T08:33:10.178Z,103
2023-03-11T08:34:10.988Z,103
2023-03-11T08:35:11.269Z,103
2023-03-11T08:36:10.928Z,103
2023-03-11T08:37:10.505Z,103
2023-03-11T08:38:10.561Z,103
2023-03-11T08:39:10.401Z,103
2023-03-11T08:40:10.575Z,103
2023-03-11T08:41:10.422Z,103
2023-03-11T08:42:10.233Z,103
2023-03-11T08:43:10.545Z,103
2023-03-11T08:44:10.859Z,103
2023-03-11T08:45:10.828Z,103
2023-03-11T08:46:10.454Z,103
2023-03-11T08:47:10.238Z,103
2023-03-11T08:48:10.432Z,103
2023-03-11T08:49:10.857Z,103
2023-03-11T08:50:10.949Z,103
2023-03-11T08:51:10.525Z,103
2023-03-11T08:52:10.669Z,103
2023-03-11T08:53:09.964Z,103
2023-03-11T08:54:10.486Z,103
2023-03-11T08:55:10.969Z,103
2023-03-11T08:56:10.071Z,103
2023-03-11T08:57:10.770Z,103
2023-03-11T08:58:10.637Z,103
2023-03-11T08:59:09.956Z,103
2023-03-11T09:00:12.674Z,103
2023-03-11T09:01:10.502Z,103
2023-03-11T09:02:10.795Z,103
2023-03-11T09:03:11.131Z,103
2023-03-11T09:04:09.925Z,103
2023-03-11T09:05:10.641Z,103
2023-03-11T09:06:10.777Z,103
2023-03-11T09:07:09.931Z,103
2023-03-11T09:08:12.663Z,103
2023-03-11T09:09:10.544Z,103
2023-03-11T09:10:10.780Z,103
2023-03-11T09:11:10.239Z,103
2023-03-11T09:12:10.229Z,103
2023-03-11T09:13:10.555Z,103
2023-03-11T09:14:10.915Z,103
2023-03-11T09:15:10.152Z,103
2023-03-11T09:16:10.926Z,103
2023-03-11T09:17:10.868Z,103
2023-03-11T09:18:10.112Z,103
2023-03-11T09:19:10.565Z,103
2023-03-11T09:20:10.496Z,103
2023-03-11T09:21:10.065Z,103
2023-03-11T09:22:10.282Z,103
2023-03-11T09:23:10.433Z,103
2023-03-11T09:24:10.616Z,103
2023-03-11T09:25:10.819Z,103
2023-03-11T09:26:10.767Z,103
2023-03-11T09:27:10.909Z,103
2023-03-11T09:28:10.016Z,103
2023-03-11T09:29:10.290Z,103
2023-03-11T09:30:10.844Z,103
2023-03-11T09:31:10.393Z,103
2023-03-11T09:32:10.363Z,103
2023-03-11T09:33:10.507Z,103
2023-03-11T09:34:10.725Z,103
2023-03-11T09:35:10.158Z,103
2023-03-11T09:36:10.619Z,103
2023-03-11T09:37:10.583Z,103
2023-03-11T09:38:09.954Z,103
2023-03-11T09:39:10.334Z,103
2023-03-11T09:40:10.576Z,103
2023-03-11T09:41:10.857Z,103
2023-03-11T09:42:10.200Z,103
2023-03-11T09:43:10.361Z,103
2023-03-11T09:44:10.946Z,103
2023-03-11T09:45:10.466Z,103
2023-03-11T09:46:10.561Z,103
2023-03-11T09:47:10.413Z,103
2023-03-11T09:48:10.220Z,103
2023-03-11T09:49:10.325Z,103
2023-03-11T09:50:10.738Z,103
2023-03-11T09:51:10.045Z,103
2023-03-11T09:52:10.272Z,103
2023-03-11T09:53:10.560Z,103
2023-03-11T09:54:10.736Z,103
2023-03-11T09:55:10.027Z,103
2023-03-11T09:56:10.359Z,103
2023-03-11T09:57:10.696Z,103
2023-03-11T09:58:10.698Z,103
2023-03-11T09:59:10.186Z,103
2023-03-11T10:00:10.468Z,103
2023-03-11T10:01:10.711Z,103
2023-03-11T10:02:10.412Z,103
2023-03-11T10:03:10.601Z,103
2023-03-11T10:04:10.298Z,103
2023-03-11T10:05:10.797Z,103
2023-03-11T10:06:09.985Z,103
2023-03-11T10:07:10.397Z,105
2023-03-11T10:08:10.551Z,105
2023-03-11T10:09:10.741Z,105
2023-03-11T10:10:10.065Z,105
2023-03-11T10:11:10.566Z,105
2023-03-11T10:12:10.735Z,105
2023-03-11T10:13:10.165Z,105
2023-03-11T10:14:10.558Z,105
2023-03-11T10:15:10.655Z,105
2023-03-11T10:16:09.970Z,105
2023-03-11T10:17:10.297Z,105
2023-03-11T10:18:10.761Z,105
2023-03-11T10:19:10.817Z,105
2023-03-11T10:20:10.356Z,105
2023-03-11T10:21:10.526Z,105
2023-03-11T10:22:10.786Z,105
2023-03-11T10:23:09.949Z,105
2023-03-11T10:24:10.272Z,105
2023-03-11T10:25:10.608Z,105
2023-03-11T10:26:09.848Z,105
2023-03-11T10:27:10.372Z,105
2023-03-11T10:28:10.390Z,105
2023-03-11T10:29:10.564Z,105
2023-03-11T10:30:11.051Z,105
2023-03-11T10:31:10.091Z,105
2023-03-11T10:32:10.566Z,105
2023-03-11T10:33:10.609Z,105
2023-03-11T10:34:10.090Z,105
2023-03-11T10:35:10.530Z,105
2023-03-11T10:36:11.044Z,105
2023-03-11T10:37:10.768Z,105
2023-03-11T10:38:10.035Z,105
2023-03-11T10:39:10.535Z,105
2023-03-11T10:40:10.773Z,105
2023-03-11T10:41:10.425Z,105
2023-03-11T10:42:10.877Z,105
2023-03-11T10:43:10.951Z,105
2023-03-11T10:44:09.981Z,105
2023-03-11T10:45:10.127Z,105
2023-03-11T10:46:11.119Z,105
2023-03-11T10:47:10.985Z,105
2023-03-11T10:48:09.819Z,105
2023-03-11T10:49:10.367Z,105
2023-03-11T10:50:10.612Z,105
2023-03-11T10:51:10.021Z,105
2023-03-11T10:52:10.197Z,105
2023-03-11T10:53:10.344Z,105
2023-03-11T10:54:10.498Z,105
2023-03-11T10:55:10.940Z,105
2023-03-11T10:56:09.855Z,105
2023-03-11T10:57:10.468Z,105
2023-03-11T10:58:10.550Z,105
2023-03-11T10:59:10.700Z,105
2023-03-11T11:00:10.044Z,105
2023-03-11T11:01:10.677Z,105
2023-03-11T11:02:10.703Z,105
2023-03-11T11:03:09.972Z,105
2023-03-11T11:04:10.556Z,105
2023-03-11T11:05:10.376Z,105
2023-03-11T11:06:10.762Z,105
2023-03-11T11:07:10.052Z,100
2023-03-11T11:08:10.167Z,100
2023-03-11T11:09:10.579Z,100
2023-03-11T11:10:10.840Z,100
2023-03-11T11:11:09.975Z,100
2023-03-11T11:12:10.277Z,100
2023-03-11T11:13:10.523Z,100
2023-03-11T11:14:10.762Z,100
2023-03-11T11:15:10.109Z,100
2023-03-11T11:16:10.166Z,100
2023-03-11T11:17:10.506Z,100
2023-03-11T11:18:10.664Z,100
2023-03-11T11:19:10.748Z,100
2023-03-11T11:20:10.145Z,100
2023-03-11T11:21:10.586Z,100
2023-03-11T11:22:10.837Z,100
2023-03-11T11:23:09.836Z,100
2023-03-11T11:24:10.022Z,100
2023-03-11T11:25:10.797Z,100
2023-03-11T11:26:10.977Z,100
2023-03-11T11:27:10.173Z,100
2023-03-11T11:28:10.562Z,100
2023-03-11T11:29:13.042Z,100
2023-03-11T11:30:10.044Z,100
2023-03-11T11:31:10.481Z,100
2023-03-11T11:32:10.571Z,100
2023-03-11T11:33:10.795Z,100
2023-03-11T11:34:10.014Z,100
2023-03-11T11:35:10.252Z,100
2023-03-11T11:36:10.505Z,100
2023-03-11T11:37:10.718Z,100
2023-03-11T11:38:09.989Z,100
2023-03-11T11:39:10.223Z,100
2023-03-11T11:40:12.201Z,100
2023-03-11T11:41:10.755Z,100
2023-03-11T11:42:10.948Z,100
2023-03-11T11:43:10.102Z,100
2023-03-11T11:44:10.407Z,100
2023-03-11T11:45:10.061Z,100
2023-03-11T11:46:10.740Z,100
2023-03-11T11:47:12.787Z,100
2023-03-11T11:48:10.219Z,100
2023-03-11T11:49:10.228Z,100
2023-03-11T11:50:10.449Z,100
2023-03-11T11:51:09.992Z,100
2023-03-11T11:52:10.263Z,100
2023-03-11T11:53:10.437Z,100
2023-03-11T11:54:10.687Z,100
2023-03-11T11:55:10.388Z,100
2023-03-11T11:56:10.331Z,100
2023-03-11T11:57:10.787Z,100
2023-03-11T11:58:09.834Z,100
2023-03-11T11:59:10.115Z,100
2023-03-11T12:00:11.149Z,100
2023-03-11T12:01:10.146Z,100
2023-03-11T12:02:10.419Z,100
2023-03-11T12:03:10.577Z,100
2023-03-11T12:04:10.893Z,100
2023-03-11T12:05:10.195Z,100
2023-03-11T12:06:10.830Z,100
2023-03-11T12:07:10.608Z,106
2023-03-11T12:08:09.926Z,106
2023-03-11T12:09:10.081Z,106
2023-03-11T12:10:29.595Z,106
2023-03-11T12:12:10.439Z,106
2023-03-11T12:13:10.749Z,106
2023-03-11T12:14:10.062Z,106
2023-03-11T12:15:10.487Z,106
2023-03-11T12:16:10.723Z,106
2023-03-11T12:17:12.532Z,106
2023-03-11T12:18:09.944Z,106
2023-03-11T12:19:10.427Z,106
2023-03-11T12:20:10.901Z,106
2023-03-11T12:21:10.346Z,106
2023-03-11T12:22:09.838Z,106
2023-03-11T12:23:09.923Z,106
2023-03-11T12:24:10.535Z,106
2023-03-11T12:25:10.691Z,106
2023-03-11T12:26:10.306Z,106
2023-03-11T12:27:10.801Z,106
2023-03-11T12:28:10.099Z,106
2023-03-11T12:29:10.191Z,106
2023-03-11T12:30:10.476Z,106
2023-03-11T12:31:10.612Z,106
2023-03-11T12:32:10.608Z,106
2023-03-11T12:33:11.045Z,106
2023-03-11T12:34:09.961Z,106
2023-03-11T12:35:10.305Z,106
2023-03-11T12:36:10.835Z,106
2023-03-11T12:37:10.798Z,106
2023-03-11T12:38:10.265Z,106
2023-03-11T12:39:10.270Z,106
2023-03-11T12:40:10.599Z,106
2023-03-11T12:41:10.067Z,106
2023-03-11T12:42:09.993Z,106
2023-03-11T12:43:10.651Z,106
2023-03-11T12:44:11.005Z,106
2023-03-11T12:45:10.091Z,106
2023-03-11T12:46:10.388Z,106
2023-03-11T12:47:11.041Z,106
2023-03-11T12:48:10.221Z,106
2023-03-11T12:49:10.450Z,106
2023-03-11T12:50:10.680Z,106
2023-03-11T12:51:10.884Z,106
2023-03-11T12:52:10.120Z,106
2023-03-11T12:53:12.166Z,106
2023-03-11T12:54:10.658Z,106
2023-03-11T12:55:10.109Z,106
2023-03-11T12:56:10.495Z,106
2023-03-11T12:57:10.874Z,106
2023-03-11T12:58:11.020Z,106
2023-03-11T12:59:10.154Z,106
2023-03-11T13:00:10.412Z,106
2023-03-11T13:01:10.738Z,106
2023-03-11T13:02:10.421Z,106
2023-03-11T13:03:10.676Z,106
2023-03-11T13:04:10.792Z,106
2023-03-11T13:05:10.115Z,106
2023-03-11T13:06:10.262Z,106
2023-03-11T13:07:10.444Z,102
2023-03-11T13:08:10.686Z,102
2023-03-11T13:09:10.986Z,102
2023-03-11T13:10:10.078Z,102
2023-03-11T13:11:10.761Z,102
2023-03-11T13:12:10.826Z,102
2023-03-11T13:13:10.116Z,102
2023-03-11T13:14:10.525Z,102
2023-03-11T13:15:10.992Z,102
2023-03-11T13:16:11.081Z,102
2023-03-11T13:17:10.171Z,102
2023-03-11T13:18:10.372Z,102
2023-03-11T13:19:10.618Z,102
2023-03-11T13:20:10.849Z,102
2023-03-11T13:21:10.496Z,102
2023-03-11T13:22:10.791Z,102
2023-03-11T13:23:10.112Z,102
2023-03-11T13:24:10.366Z,102
2023-03-11T13:25:10.510Z,102
2023-03-11T13:26:10.761Z,102
2023-03-11T13:27:12.900Z,102
2023-03-11T13:28:10.495Z,102
2023-03-11T13:29:10.863Z,102
2023-03-11T13:30:10.193Z,102
2023-03-11T13:31:10.799Z,102
2023-03-11T13:32:12.797Z,102
2023-03-11T13:33:10.054Z,102
2023-03-11T13:34:10.237Z,102
2023-03-11T13:35:10.627Z,102
2023-03-11T13:36:10.824Z,102
2023-03-11T13:37:10.832Z,102
2023-03-11T13:38:10.078Z,102
2023-03-11T13:39:10.068Z,102
2023-03-11T13:40:10.793Z,102
2023-03-11T13:41:10.876Z,102
2023-03-11T13:42:10.300Z,102
2023-03-11T13:43:12.369Z,102
2023-03-11T13:44:10.586Z,102
2023-03-11T13:45:10.938Z,102
2023-03-11T13:46:10.547Z,102
2023-03-11T13:47:10.540Z,102